Time;durP1;ratioP1;P1;durP2;ratioP2;P2;SDS_P1;SDS_P2;PMS_P1;PMS_P2;Temp;Humidity;BMP_temperature;BMP_pressure;BME280_temperature;BME280_humidity;BME280_pressure;Samples;Min_cycle;Max_cycle;Signal;HPM_P1;HPM_P2
2023/12/28 00:00:06;;;;;;;13.50;7.98;;;;;;;;;;736276;188;1737475;-61
2023/12/28 00:02:32;;;;;;;10.90;6.27;;;;;;;;;;738895;187;921111;-68
2023/12/28 00:04:57;;;;;;;15.57;10.20;;;;;;;;;;736971;186;922189;-68
2023/12/28 00:07:23;;;;;;;20.05;7.15;;;;;;;;;;732390;189;919061;-68
2023/12/28 00:09:49;;;;;;;12.90;7.40;;;;;;;;;;738346;188;914987;-68
2023/12/28 00:12:15;;;;;;;17.80;10.23;;;;;;;;;;733849;188;816128;-61
2023/12/28 00:14:41;;;;;;;14.77;10.37;;;;;;;;;;735823;188;854733;-68
2023/12/28 00:17:06;;;;;;;15.43;9.67;;;;;;;;;;738445;188;922350;-61
2023/12/28 00:19:32;;;;;;;14.93;9.33;;;;;;;;;;734151;188;918775;-68
2023/12/28 00:21:58;;;;;;;13.80;10.20;;;;;;;;;;734257;188;918200;-62
2023/12/28 00:24:24;;;;;;;13.70;9.17;;;;;;;;;;738626;188;918385;-62
2023/12/28 00:26:50;;;;;;;18.50;9.13;;;;;;;;;;732884;188;924686;-62
2023/12/28 00:29:16;;;;;;;16.50;9.97;;;;;;;;;;732484;189;922655;-61
2023/12/28 00:31:41;;;;;;;17.00;9.53;;;;;;;;;;732299;189;921219;-62
2023/12/28 00:34:07;;;;;;;16.10;9.90;;;;;;;;;;740268;189;819787;-67
2023/12/28 00:36:33;;;;;;;12.60;8.53;;;;;;;;;;726516;189;905404;-68
2023/12/28 00:38:59;;;;;;;14.75;9.25;;;;;;;;;;733415;188;919118;-67
2023/12/28 00:41:25;;;;;;;13.23;9.47;;;;;;;;;;738564;188;918375;-62
2023/12/28 00:43:51;;;;;;;17.80;10.27;;;;;;;;;;732440;188;930355;-59
2023/12/28 00:46:17;;;;;;;13.80;9.40;;;;;;;;;;732506;188;919523;-65
2023/12/28 00:48:42;;;;;;;15.60;9.60;;;;;;;;;;736866;189;919019;-65
2023/12/28 00:51:08;;;;;;;20.40;9.83;;;;;;;;;;731590;189;922373;-65
2023/12/28 00:53:34;;;;;;;19.00;10.50;;;;;;;;;;731803;188;917712;-66
2023/12/28 00:56:00;;;;;;;15.17;9.70;;;;;;;;;;733141;190;815165;-59
2023/12/28 00:58:26;;;;;;;15.63;9.50;;;;;;;;;;747336;187;830311;-59
2023/12/28 01:00:55;;;;;;;16.30;8.93;;;;;;;;;;733481;188;919053;-65
2023/12/28 01:03:17;;;;;;;17.07;8.53;;;;;;;;;;736256;188;816840;-59
2023/12/28 01:05:47;;;;;;;15.43;7.53;;;;;;;;;;735376;189;930677;-65
2023/12/28 01:08:09;;;;;;;14.37;8.53;;;;;;;;;;730240;189;912650;-65
2023/12/28 01:10:35;;;;;;;17.62;8.13;;;;;;;;;;732662;189;912411;-65
2023/12/28 01:13:01;;;;;;;14.07;7.70;;;;;;;;;;737643;188;918142;-59
2023/12/28 01:15:27;;;;;;;16.37;7.87;;;;;;;;;;733490;188;916035;-66
2023/12/28 01:17:53;;;;;;;9.40;6.93;;;;;;;;;;732594;186;916426;-66
2023/12/28 01:20:18;;;;;;;10.50;6.97;;;;;;;;;;737866;186;919158;-59
2023/12/28 01:22:44;;;;;;;18.50;6.93;;;;;;;;;;735509;188;816721;-59
2023/12/28 01:25:10;;;;;;;12.27;7.00;;;;;;;;;;734851;188;921563;-65
2023/12/28 01:27:36;;;;;;;10.07;6.47;;;;;;;;;;735221;188;915889;-59
2023/12/28 01:30:02;;;;;;;12.53;6.53;;;;;;;;;;737968;188;914609;-59
2023/12/28 01:32:28;;;;;;;13.43;7.90;;;;;;;;;;732169;188;924920;-66
2023/12/28 01:34:53;;;;;;;12.07;6.03;;;;;;;;;;732956;189;824006;-65
2023/12/28 01:37:19;;;;;;;14.13;8.23;;;;;;;;;;736286;188;912650;-59
2023/12/28 01:39:45;;;;;;;14.47;7.30;;;;;;;;;;731331;189;915993;-59
2023/12/28 01:42:11;;;;;;;12.80;8.00;;;;;;;;;;734190;189;915176;-65
2023/12/28 01:44:37;;;;;;;11.40;6.90;;;;;;;;;;740652;189;913656;-59
2023/12/28 01:47:03;;;;;;;11.43;6.82;;;;;;;;;;734826;188;920838;-59
2023/12/28 01:49:29;;;;;;;13.00;8.30;;;;;;;;;;732804;188;931570;-58
2023/12/28 01:51:54;;;;;;;12.87;7.77;;;;;;;;;;730513;188;919118;-64
2023/12/28 01:54:20;;;;;;;21.03;8.63;;;;;;;;;;728158;188;935091;-65
2023/12/28 01:56:46;;;;;;;13.27;8.00;;;;;;;;;;731223;189;918506;-65
2023/12/28 01:59:12;;;;;;;12.90;8.18;;;;;;;;;;734622;188;921992;-65
2023/12/28 02:01:38;;;;;;;18.40;8.23;;;;;;;;;;722277;193;919522;-59
2023/12/28 02:04:04;;;;;;;12.90;7.20;;;;;;;;;;724886;189;919123;-59
2023/12/28 02:06:29;;;;;;;14.67;8.60;;;;;;;;;;724133;188;918869;-59
2023/12/28 02:08:55;;;;;;;13.60;8.00;;;;;;;;;;738498;188;918958;-66
2023/12/28 02:11:21;;;;;;;11.67;7.53;;;;;;;;;;738669;186;920448;-59
2023/12/28 02:13:47;;;;;;;17.00;8.17;;;;;;;;;;736479;186;945620;-65
2023/12/28 02:16:14;;;;;;;14.37;9.17;;;;;;;;;;726960;189;918913;-65
2023/12/28 02:18:39;;;;;;;11.47;7.17;;;;;;;;;;736818;186;920279;-65
2023/12/28 02:21:05;;;;;;;12.33;8.20;;;;;;;;;;734483;189;919279;-66
2023/12/28 02:23:31;;;;;;;13.80;8.27;;;;;;;;;;730608;189;919016;-59
2023/12/28 02:25:57;;;;;;;12.07;8.23;;;;;;;;;;736228;189;919198;-64
2023/12/28 02:28:23;;;;;;;17.27;8.47;;;;;;;;;;731818;188;929343;-66
2023/12/28 02:30:49;;;;;;;21.40;9.40;;;;;;;;;;730243;189;922880;-65
2023/12/28 02:33:19;;;;;;;11.20;7.17;;;;;;;;;;737402;189;816828;-66
2023/12/28 02:35:46;;;;;;;14.90;9.07;;;;;;;;;;732972;188;918974;-66
2023/12/28 02:38:12;;;;;;;13.07;7.95;;;;;;;;;;732554;188;919986;-68
2023/12/28 02:40:38;;;;;;;13.17;8.77;;;;;;;;;;731828;189;913561;-59
2023/12/28 02:43:03;;;;;;;17.53;8.80;;;;;;;;;;735700;189;916046;-59
2023/12/28 02:45:29;;;;;;;14.50;8.20;;;;;;;;;;734187;188;915283;-59
2023/12/28 02:47:55;;;;;;;15.50;9.50;;;;;;;;;;732248;189;919247;-59
2023/12/28 02:50:21;;;;;;;14.83;8.23;;;;;;;;;;737325;189;919144;-59
2023/12/28 02:52:47;;;;;;;13.03;8.43;;;;;;;;;;730841;189;919602;-67
2023/12/28 02:55:13;;;;;;;11.90;8.07;;;;;;;;;;733129;189;872993;-59
2023/12/28 02:57:39;;;;;;;13.50;8.20;;;;;;;;;;736481;188;918859;-66
2023/12/28 03:00:05;;;;;;;12.70;8.73;;;;;;;;;;732013;188;917895;-61
2023/12/28 03:02:31;;;;;;;13.27;8.50;;;;;;;;;;733277;189;815895;-66
2023/12/28 03:04:57;;;;;;;18.03;8.27;;;;;;;;;;733417;189;923079;-60
2023/12/28 03:07:23;;;;;;;14.63;8.70;;;;;;;;;;731861;189;917531;-66
2023/12/28 03:09:48;;;;;;;14.20;8.57;;;;;;;;;;728508;189;817067;-66
2023/12/28 03:12:16;;;;;;;15.63;9.37;;;;;;;;;;730251;189;926804;-59
2023/12/28 03:14:40;;;;;;;16.23;8.70;;;;;;;;;;755004;183;912664;-66
2023/12/28 03:17:06;;;;;;;15.53;9.87;;;;;;;;;;739604;188;907196;-60
2023/12/28 03:19:32;;;;;;;15.80;9.00;;;;;;;;;;742577;185;943222;-59
2023/12/28 03:21:58;;;;;;;15.40;9.77;;;;;;;;;;730311;190;919622;-59
2023/12/28 03:24:23;;;;;;;16.23;9.00;;;;;;;;;;733029;189;921604;-66
2023/12/28 03:26:49;;;;;;;15.07;8.97;;;;;;;;;;748855;186;919518;-66
2023/12/28 03:29:15;;;;;;;16.90;9.50;;;;;;;;;;749703;182;880233;-65
2023/12/28 03:31:41;;;;;;;16.48;8.45;;;;;;;;;;722483;190;919854;-66
2023/12/28 03:34:07;;;;;;;15.20;8.70;;;;;;;;;;730672;189;916730;-59
2023/12/28 03:36:33;;;;;;;16.42;9.30;;;;;;;;;;731484;189;914953;-59
2023/12/28 03:38:58;;;;;;;13.13;8.70;;;;;;;;;;734784;189;916226;-59
2023/12/28 03:41:24;;;;;;;17.37;9.00;;;;;;;;;;731956;190;811173;-67
2023/12/28 03:43:50;;;;;;;16.53;10.03;;;;;;;;;;730775;189;905936;-66
2023/12/28 03:46:16;;;;;;;13.50;9.17;;;;;;;;;;736135;188;919033;-67
2023/12/28 03:48:42;;;;;;;17.70;9.40;;;;;;;;;;750528;183;919971;-59
2023/12/28 03:51:08;;;;;;;18.43;9.60;;;;;;;;;;736797;187;926596;-59
2023/12/28 03:53:33;;;;;;;16.80;9.40;;;;;;;;;;734986;188;914292;-66
2023/12/28 03:55:59;;;;;;;18.80;10.07;;;;;;;;;;732684;187;924470;-66
2023/12/28 03:58:25;;;;;;;15.57;10.07;;;;;;;;;;730355;189;918267;-65
2023/12/28 04:00:51;;;;;;;19.35;8.80;;;;;;;;;;737510;187;953560;-66
2023/12/28 04:03:17;;;;;;;19.70;10.10;;;;;;;;;;739851;185;885620;-66
2023/12/28 04:05:43;;;;;;;16.63;10.20;;;;;;;;;;732114;187;921778;-59
2023/12/28 04:08:09;;;;;;;14.85;9.80;;;;;;;;;;739351;186;922644;-60
2023/12/28 04:10:36;;;;;;;14.70;9.10;;;;;;;;;;753942;185;921355;-67
2023/12/28 04:13:00;;;;;;;13.20;9.00;;;;;;;;;;737068;189;824361;-67
2023/12/28 04:15:26;;;;;;;17.63;10.00;;;;;;;;;;721432;190;919445;-60
2023/12/28 04:17:52;;;;;;;20.10;10.57;;;;;;;;;;732210;189;737403;-67
2023/12/28 04:20:18;;;;;;;26.93;12.20;;;;;;;;;;744540;185;921264;-68
2023/12/28 04:22:44;;;;;;;16.80;8.90;;;;;;;;;;735832;187;917637;-67
2023/12/28 04:25:10;;;;;;;14.75;8.88;;;;;;;;;;726208;191;919540;-67
2023/12/28 04:27:35;;;;;;;17.07;9.03;;;;;;;;;;729782;187;816172;-68
2023/12/28 04:30:01;;;;;;;14.60;7.93;;;;;;;;;;731865;189;921513;-67
2023/12/28 04:32:27;;;;;;;14.37;9.53;;;;;;;;;;732862;190;919148;-60
2023/12/28 04:34:54;;;;;;;16.80;9.87;;;;;;;;;;734924;190;818263;-59
2023/12/28 04:37:19;;;;;;;16.90;9.40;;;;;;;;;;732110;190;919109;-68
2023/12/28 04:39:45;;;;;;;17.27;9.00;;;;;;;;;;728323;190;920008;-60
2023/12/28 04:42:11;;;;;;;16.90;8.30;;;;;;;;;;733858;189;918666;-67
2023/12/28 04:44:37;;;;;;;14.10;8.70;;;;;;;;;;723739;189;925985;-67
2023/12/28 04:47:03;;;;;;;14.30;9.70;;;;;;;;;;739496;187;816175;-68
2023/12/28 04:49:29;;;;;;;16.33;9.67;;;;;;;;;;745437;185;919841;-60
2023/12/28 04:51:55;;;;;;;20.70;9.40;;;;;;;;;;728184;188;919063;-60
2023/12/28 04:54:20;;;;;;;14.80;7.53;;;;;;;;;;732681;189;879511;-68
2023/12/28 04:56:46;;;;;;;15.83;8.13;;;;;;;;;;731640;189;921374;-66
2023/12/28 04:59:12;;;;;;;16.37;9.37;;;;;;;;;;735399;186;840394;-60
2023/12/28 05:01:41;;;;;;;16.27;10.67;;;;;;;;;;732883;188;918032;-60
2023/12/28 05:04:07;;;;;;;18.30;10.10;;;;;;;;;;729705;189;910412;-60
2023/12/28 05:06:32;;;;;;;16.83;9.10;;;;;;;;;;729280;190;918909;-66
2023/12/28 05:08:58;;;;;;;20.23;10.20;;;;;;;;;;733742;187;919404;-60
2023/12/28 05:11:24;;;;;;;15.20;9.47;;;;;;;;;;733564;190;918751;-66
2023/12/28 05:13:50;;;;;;;13.57;8.97;;;;;;;;;;739998;189;858995;-60
2023/12/28 05:16:16;;;;;;;19.23;10.43;;;;;;;;;;746182;183;936817;-60
2023/12/28 05:18:42;;;;;;;18.63;10.40;;;;;;;;;;740981;187;921970;-60
2023/12/28 05:21:07;;;;;;;25.60;10.25;;;;;;;;;;739752;186;920050;-65
2023/12/28 05:23:33;;;;;;;11.50;8.90;;;;;;;;;;747067;186;820161;-65
2023/12/28 05:25:59;;;;;;;18.13;10.67;;;;;;;;;;735823;189;918582;-59
2023/12/28 05:28:25;;;;;;;13.50;9.43;;;;;;;;;;733578;189;918266;-65
2023/12/28 05:30:51;;;;;;;16.17;9.40;;;;;;;;;;743319;185;848732;-59
2023/12/28 05:33:17;;;;;;;15.00;8.77;;;;;;;;;;732790;189;917977;-65
2023/12/28 05:35:42;;;;;;;19.57;11.37;;;;;;;;;;732134;188;919395;-60
2023/12/28 05:38:08;;;;;;;18.50;9.80;;;;;;;;;;739092;189;919218;-66
2023/12/28 05:40:34;;;;;;;17.80;8.57;;;;;;;;;;732275;189;921841;-66
2023/12/28 05:43:00;;;;;;;15.40;8.97;;;;;;;;;;734153;187;919820;-66
2023/12/28 05:45:26;;;;;;;13.80;9.40;;;;;;;;;;739558;188;918784;-59
2023/12/28 05:47:52;;;;;;;16.67;9.03;;;;;;;;;;734169;187;817781;-65
2023/12/28 05:50:17;;;;;;;15.27;9.70;;;;;;;;;;734043;189;919023;-65
2023/12/28 05:52:43;;;;;;;19.33;10.40;;;;;;;;;;733478;189;918417;-64
2023/12/28 05:55:09;;;;;;;21.33;10.70;;;;;;;;;;737285;188;917845;-66
2023/12/28 05:57:35;;;;;;;27.10;10.53;;;;;;;;;;731488;188;914541;-59
2023/12/28 06:00:01;;;;;;;15.87;9.90;;;;;;;;;;732755;188;919438;-60
2023/12/28 06:02:27;;;;;;;16.17;11.23;;;;;;;;;;743039;185;916501;-66
2023/12/28 06:04:53;;;;;;;17.27;10.50;;;;;;;;;;733545;189;818660;-66
2023/12/28 06:07:18;;;;;;;16.33;9.40;;;;;;;;;;732036;188;926977;-59
2023/12/28 06:09:46;;;;;;;15.70;9.80;;;;;;;;;;738056;187;920681;-59
2023/12/28 06:12:10;;;;;;;16.10;9.10;;;;;;;;;;735261;188;921842;-59
2023/12/28 06:14:36;;;;;;;17.00;11.23;;;;;;;;;;733732;188;936746;-59
2023/12/28 06:17:02;;;;;;;19.60;11.73;;;;;;;;;;733791;189;918882;-59
2023/12/28 06:19:28;;;;;;;18.90;10.40;;;;;;;;;;743849;187;812285;-66
2023/12/28 06:21:54;;;;;;;20.27;11.20;;;;;;;;;;737754;187;818491;-65
2023/12/28 06:24:19;;;;;;;16.00;11.30;;;;;;;;;;732022;189;846204;-59
2023/12/28 06:26:45;;;;;;;17.70;11.00;;;;;;;;;;737958;188;819658;-66
2023/12/28 06:29:11;;;;;;;14.80;9.53;;;;;;;;;;731280;189;917920;-59
2023/12/28 06:31:37;;;;;;;21.43;11.07;;;;;;;;;;731327;188;919587;-59
2023/12/28 06:34:03;;;;;;;17.27;11.20;;;;;;;;;;738029;188;919551;-59
2023/12/28 06:36:29;;;;;;;16.10;10.77;;;;;;;;;;731351;188;919935;-59
2023/12/28 06:38:54;;;;;;;15.50;10.07;;;;;;;;;;736793;188;810985;-65
2023/12/28 06:41:20;;;;;;;17.07;10.97;;;;;;;;;;738345;188;818828;-59
2023/12/28 06:43:46;;;;;;;16.20;10.43;;;;;;;;;;733327;188;919392;-68
2023/12/28 06:46:12;;;;;;;19.17;11.17;;;;;;;;;;732423;188;849141;-68
2023/12/28 06:48:40;;;;;;;18.30;10.90;;;;;;;;;;732261;187;920404;-67
2023/12/28 06:51:04;;;;;;;18.37;11.75;;;;;;;;;;740126;188;818757;-62
2023/12/28 06:53:30;;;;;;;19.00;10.37;;;;;;;;;;733349;189;921131;-61
2023/12/28 06:55:56;;;;;;;21.53;11.60;;;;;;;;;;732350;188;910573;-67
2023/12/28 06:58:21;;;;;;;16.70;9.90;;;;;;;;;;737300;188;920704;-67
2023/12/28 07:00:47;;;;;;;15.70;10.23;;;;;;;;;;733657;187;916079;-61
2023/12/28 07:03:13;;;;;;;17.40;10.80;;;;;;;;;;734836;189;917450;-68
2023/12/28 07:05:39;;;;;;;15.13;10.50;;;;;;;;;;738263;189;916746;-68
2023/12/28 07:08:05;;;;;;;19.40;11.60;;;;;;;;;;732340;189;919126;-67
2023/12/28 07:10:31;;;;;;;20.77;11.80;;;;;;;;;;733696;188;915919;-68
2023/12/28 07:12:57;;;;;;;17.27;10.63;;;;;;;;;;732564;188;916830;-62
2023/12/28 07:15:23;;;;;;;16.10;10.30;;;;;;;;;;748049;186;917875;-68
2023/12/28 07:17:48;;;;;;;20.60;10.80;;;;;;;;;;733403;188;920537;-68
2023/12/28 07:20:14;;;;;;;17.10;11.50;;;;;;;;;;732624;190;818040;-62
2023/12/28 07:22:41;;;;;;;25.00;11.93;;;;;;;;;;739312;188;769048;-62
2023/12/28 07:25:06;;;;;;;20.50;12.23;;;;;;;;;;731994;188;919686;-67
2023/12/28 07:27:32;;;;;;;16.63;11.10;;;;;;;;;;731696;189;917152;-62
2023/12/28 07:29:58;;;;;;;21.12;11.50;;;;;;;;;;738901;189;816446;-68
2023/12/28 07:32:25;;;;;;;23.33;11.60;;;;;;;;;;732672;189;924194;-63
2023/12/28 07:34:50;;;;;;;20.20;11.57;;;;;;;;;;734138;188;919155;-63
2023/12/28 07:37:16;;;;;;;18.77;10.95;;;;;;;;;;735328;188;816703;-66
2023/12/28 07:39:42;;;;;;;19.67;11.77;;;;;;;;;;738228;187;714794;-68
2023/12/28 07:42:07;;;;;;;26.93;12.90;;;;;;;;;;744667;187;628024;-68
2023/12/28 07:44:33;;;;;;;18.57;11.10;;;;;;;;;;734460;191;734141;-64
2023/12/28 07:46:59;;;;;;;20.57;10.40;;;;;;;;;;739218;188;916758;-65
2023/12/28 07:49:25;;;;;;;15.30;9.60;;;;;;;;;;735344;188;912273;-66
2023/12/28 07:51:51;;;;;;;16.23;9.43;;;;;;;;;;733181;188;909932;-66
2023/12/28 07:54:17;;;;;;;18.43;9.43;;;;;;;;;;746240;187;918999;-65
2023/12/28 07:56:42;;;;;;;17.80;11.23;;;;;;;;;;730750;188;922189;-64
2023/12/28 07:59:09;;;;;;;15.77;9.48;;;;;;;;;;732759;188;973707;-65
2023/12/28 08:01:34;;;;;;;28.40;11.07;;;;;;;;;;737034;189;917668;-70
2023/12/28 08:04:01;;;;;;;16.93;11.90;;;;;;;;;;730447;188;918084;-64
2023/12/28 08:06:26;;;;;;;15.40;10.27;;;;;;;;;;732409;189;819096;-62
2023/12/28 08:08:53;;;;;;;17.87;9.00;;;;;;;;;;734330;187;917632;-62
2023/12/28 08:11:18;;;;;;;19.10;9.00;;;;;;;;;;737841;188;818424;-70
2023/12/28 08:13:43;;;;;;;17.20;8.90;;;;;;;;;;733096;189;919102;-70
2023/12/28 08:16:09;;;;;;;20.10;8.30;;;;;;;;;;731555;189;930151;-62
2023/12/28 08:18:35;;;;;;;20.05;9.57;;;;;;;;;;739578;189;812977;-70
2023/12/28 08:21:01;;;;;;;14.87;7.60;;;;;;;;;;734702;189;846884;-62
2023/12/28 08:23:27;;;;;;;12.73;8.17;;;;;;;;;;733755;189;918433;-61
2023/12/28 08:25:53;;;;;;;14.00;8.87;;;;;;;;;;739316;188;918404;-70
2023/12/28 08:28:19;;;;;;;18.80;8.20;;;;;;;;;;737316;184;1228913;-70
2023/12/28 08:30:45;;;;;;;14.80;7.80;;;;;;;;;;729438;189;1126265;-70
2023/12/28 08:33:11;;;;;;;10.27;7.43;;;;;;;;;;735537;188;916858;-70
2023/12/28 08:35:37;;;;;;;14.93;6.70;;;;;;;;;;749594;185;823882;-63
2023/12/28 08:38:03;;;;;;;13.87;9.07;;;;;;;;;;734670;188;918667;-70
2023/12/28 08:40:29;;;;;;;15.40;9.60;;;;;;;;;;734726;187;920260;-63
2023/12/28 08:42:55;;;;;;;15.87;9.57;;;;;;;;;;741262;189;613664;-71
2023/12/28 08:45:21;;;;;;;12.07;6.10;;;;;;;;;;734545;190;631304;-71
2023/12/28 08:47:46;;;;;;;16.13;9.10;;;;;;;;;;735628;188;628709;-71
2023/12/28 08:50:12;;;;;;;16.53;10.10;;;;;;;;;;742385;189;637433;-70
2023/12/28 08:52:38;;;;;;;12.20;8.80;;;;;;;;;;737762;188;623099;-63
2023/12/28 08:55:04;;;;;;;22.10;9.97;;;;;;;;;;733087;187;817313;-62
2023/12/28 08:57:31;;;;;;;14.65;9.07;;;;;;;;;;736813;189;921367;-63
2023/12/28 08:59:57;;;;;;;28.83;9.07;;;;;;;;;;745664;186;918698;-62
2023/12/28 09:02:22;;;;;;;18.37;9.50;;;;;;;;;;732044;188;918476;-62
2023/12/28 09:04:48;;;;;;;23.27;13.65;;;;;;;;;;733095;189;918887;-70
2023/12/28 09:07:16;;;;;;;33.40;18.23;;;;;;;;;;735595;191;919482;-62
2023/12/28 09:09:41;;;;;;;24.45;14.32;;;;;;;;;;731229;187;937539;-70
2023/12/28 09:12:06;;;;;;;22.00;10.13;;;;;;;;;;734729;188;919307;-62
2023/12/28 09:14:32;;;;;;;24.10;13.50;;;;;;;;;;736992;188;911724;-70
2023/12/28 09:16:58;;;;;;;23.48;12.32;;;;;;;;;;734271;188;819511;-62
2023/12/28 09:19:23;;;;;;;22.67;14.37;;;;;;;;;;732596;188;919681;-62
2023/12/28 09:21:49;;;;;;;21.60;11.40;;;;;;;;;;737147;188;918066;-62
2023/12/28 09:24:18;;;;;;;23.93;13.30;;;;;;;;;;732733;187;923041;-62
2023/12/28 09:26:41;;;;;;;18.53;10.20;;;;;;;;;;735511;188;916632;-62
2023/12/28 09:29:07;;;;;;;19.27;12.43;;;;;;;;;;733998;189;917141;-62
2023/12/28 09:31:33;;;;;;;16.03;10.43;;;;;;;;;;735976;188;924386;-62
2023/12/28 09:33:59;;;;;;;19.17;11.10;;;;;;;;;;732260;188;849313;-62
2023/12/28 09:36:24;;;;;;;14.60;9.57;;;;;;;;;;732326;188;908223;-62
2023/12/28 09:38:51;;;;;;;15.37;9.20;;;;;;;;;;738828;189;919040;-62
2023/12/28 09:41:17;;;;;;;22.30;12.97;;;;;;;;;;731942;190;881204;-62
2023/12/28 09:43:46;;;;;;;13.77;10.23;;;;;;;;;;733247;187;920058;-62
2023/12/28 09:46:13;;;;;;;21.15;11.70;;;;;;;;;;738169;188;919014;-63
2023/12/28 09:48:39;;;;;;;18.10;11.53;;;;;;;;;;740628;186;918570;-70
2023/12/28 09:51:04;;;;;;;16.10;11.30;;;;;;;;;;736087;185;919174;-71
2023/12/28 09:53:29;;;;;;;17.80;10.50;;;;;;;;;;732331;188;929194;-70
2023/12/28 09:55:55;;;;;;;16.33;11.00;;;;;;;;;;737458;189;1018991;-62
2023/12/28 09:58:21;;;;;;;20.07;11.10;;;;;;;;;;732127;188;1022491;-70
2023/12/28 10:00:47;;;;;;;16.90;10.10;;;;;;;;;;737740;186;919084;-70
2023/12/28 10:03:13;;;;;;;19.57;12.23;;;;;;;;;;739856;189;918646;-62
2023/12/28 10:05:39;;;;;;;19.50;11.60;;;;;;;;;;734013;188;817132;-63
2023/12/28 10:08:05;;;;;;;20.30;11.90;;;;;;;;;;731808;189;916461;-61
2023/12/28 10:10:31;;;;;;;18.30;12.40;;;;;;;;;;734399;188;915914;-61
2023/12/28 10:12:57;;;;;;;17.60;11.03;;;;;;;;;;725738;189;919973;-69
2023/12/28 10:15:25;;;;;;;19.50;10.70;;;;;;;;;;739467;187;908629;-61
2023/12/28 10:17:49;;;;;;;18.00;12.40;;;;;;;;;;735454;189;813443;-69
2023/12/28 10:20:14;;;;;;;18.70;11.53;;;;;;;;;;735480;188;1014521;-61
2023/12/28 10:22:40;;;;;;;16.57;12.23;;;;;;;;;;732357;189;911845;-69
2023/12/28 10:25:06;;;;;;;18.17;11.90;;;;;;;;;;731940;188;912774;-61
2023/12/28 10:27:33;;;;;;;32.40;15.73;;;;;;;;;;737261;190;815781;-68
2023/12/28 10:29:58;;;;;;;17.40;12.10;;;;;;;;;;733926;188;912611;-68
2023/12/28 10:32:24;;;;;;;16.07;10.37;;;;;;;;;;735872;189;817738;-61
2023/12/28 10:34:50;;;;;;;14.23;10.32;;;;;;;;;;740312;189;814516;-60
2023/12/28 10:37:15;;;;;;;18.03;10.20;;;;;;;;;;731232;188;922327;-60
2023/12/28 10:39:41;;;;;;;17.20;10.03;;;;;;;;;;733869;188;839373;-61
2023/12/28 10:42:07;;;;;;;16.97;11.80;;;;;;;;;;736161;189;631755;-61
2023/12/28 10:44:33;;;;;;;19.47;11.20;;;;;;;;;;751114;184;625219;-60
2023/12/28 10:46:59;;;;;;;13.97;9.00;;;;;;;;;;735129;185;761396;-60
2023/12/28 10:49:25;;;;;;;18.53;10.70;;;;;;;;;;733308;188;919623;-69
2023/12/28 10:51:52;;;;;;;20.83;11.37;;;;;;;;;;736241;189;924399;-60
2023/12/28 10:54:21;;;;;;;15.30;10.70;;;;;;;;;;731454;190;901420;-68
2023/12/28 10:56:47;;;;;;;17.43;11.23;;;;;;;;;;736911;186;818141;-68
2023/12/28 10:59:15;;;;;;;14.53;10.70;;;;;;;;;;740226;187;919161;-68
2023/12/28 11:01:40;;;;;;;17.80;11.17;;;;;;;;;;753952;183;639508;-68
2023/12/28 11:04:08;;;;;;;19.20;10.30;;;;;;;;;;738454;186;1014550;-68
2023/12/28 11:06:33;;;;;;;14.73;9.73;;;;;;;;;;738492;188;923275;-61
2023/12/28 11:08:59;;;;;;;18.40;10.83;;;;;;;;;;739403;189;824185;-61
2023/12/28 11:11:25;;;;;;;18.47;11.03;;;;;;;;;;732198;188;916788;-67
2023/12/28 11:13:51;;;;;;;17.27;11.75;;;;;;;;;;734000;188;707444;-68
2023/12/28 11:16:17;;;;;;;15.33;10.30;;;;;;;;;;735759;188;919746;-68
2023/12/28 11:18:43;;;;;;;18.73;11.50;;;;;;;;;;731317;189;911786;-69
2023/12/28 11:21:09;;;;;;;17.73;12.30;;;;;;;;;;732603;188;816934;-67
2023/12/28 11:23:35;;;;;;;17.60;10.93;;;;;;;;;;739604;187;811853;-68
2023/12/28 11:26:00;;;;;;;17.30;11.90;;;;;;;;;;734366;187;831722;-61
2023/12/28 11:28:27;;;;;;;16.93;11.77;;;;;;;;;;733416;187;918854;-69
2023/12/28 11:30:52;;;;;;;13.93;10.10;;;;;;;;;;738483;184;870149;-69
2023/12/28 11:33:18;;;;;;;16.03;10.43;;;;;;;;;;736797;189;817030;-61
2023/12/28 11:35:44;;;;;;;16.87;10.77;;;;;;;;;;732782;189;816206;-61
2023/12/28 11:38:10;;;;;;;15.77;10.60;;;;;;;;;;733389;187;823231;-67
2023/12/28 11:40:39;;;;;;;21.27;12.53;;;;;;;;;;738833;188;816436;-67
2023/12/28 11:43:05;;;;;;;16.77;11.10;;;;;;;;;;732215;188;915826;-60
2023/12/28 11:45:31;;;;;;;19.12;10.55;;;;;;;;;;732341;188;979371;-60
2023/12/28 11:47:58;;;;;;;18.87;11.73;;;;;;;;;;735300;188;916891;-61
2023/12/28 11:50:24;;;;;;;18.67;10.17;;;;;;;;;;741516;187;917164;-67
2023/12/28 11:52:50;;;;;;;20.20;10.83;;;;;;;;;;732255;185;1016358;-67
2023/12/28 11:55:21;;;;;;;18.50;11.03;;;;;;;;;;734048;185;815669;-74
2023/12/28 11:57:47;;;;;;;15.70;10.67;;;;;;;;;;761178;183;626547;-72
2023/12/28 12:00:13;;;;;;;14.80;10.30;;;;;;;;;;761686;183;626984;-73
2023/12/28 12:02:38;;;;;;;18.00;11.93;;;;;;;;;;758444;183;816836;-73
2023/12/28 12:05:05;;;;;;;18.43;12.27;;;;;;;;;;759409;184;963891;-74
2023/12/28 12:07:31;;;;;;;17.63;11.53;;;;;;;;;;747440;184;920741;-74
2023/12/28 12:09:56;;;;;;;19.27;12.60;;;;;;;;;;757084;184;925095;-73
2023/12/28 12:12:22;;;;;;;18.13;10.93;;;;;;;;;;754379;183;921801;-74
2023/12/28 12:14:48;;;;;;;15.70;10.40;;;;;;;;;;756665;183;916178;-73
2023/12/28 12:17:14;;;;;;;16.37;11.10;;;;;;;;;;756248;183;919755;-74
2023/12/28 12:19:40;;;;;;;15.20;10.67;;;;;;;;;;758409;184;918024;-73
2023/12/28 12:22:06;;;;;;;14.77;10.30;;;;;;;;;;759497;183;919399;-73
2023/12/28 12:24:31;;;;;;;15.93;10.83;;;;;;;;;;755371;184;1020479;-73
2023/12/28 12:26:57;;;;;;;20.90;12.00;;;;;;;;;;758119;184;908566;-73
2023/12/28 12:29:24;;;;;;;20.90;11.70;;;;;;;;;;758438;184;812524;-73
2023/12/28 12:31:49;;;;;;;18.90;12.30;;;;;;;;;;754262;180;916332;-73
2023/12/28 12:34:16;;;;;;;23.17;11.10;;;;;;;;;;723093;192;921104;-73
2023/12/28 12:36:42;;;;;;;20.50;12.90;;;;;;;;;;762739;183;910373;-73
2023/12/28 12:39:08;;;;;;;16.07;11.43;;;;;;;;;;767010;183;921322;-73
2023/12/28 12:41:33;;;;;;;21.13;12.23;;;;;;;;;;760958;183;640856;-73
2023/12/28 12:44:00;;;;;;;24.13;11.60;;;;;;;;;;754367;183;915465;-72
2023/12/28 12:46:25;;;;;;;19.10;12.83;;;;;;;;;;757294;183;879163;-73
2023/12/28 12:48:55;;;;;;;24.13;11.90;;;;;;;;;;758279;184;916596;-72
2023/12/28 12:51:21;;;;;;;19.08;13.10;;;;;;;;;;761397;183;915065;-74
2023/12/28 12:53:47;;;;;;;18.62;12.52;;;;;;;;;;758029;184;913450;-72
2023/12/28 12:56:13;;;;;;;18.20;12.40;;;;;;;;;;759347;183;915998;-73
2023/12/28 12:58:39;;;;;;;19.60;12.27;;;;;;;;;;753006;185;1018472;-73
2023/12/28 13:01:05;;;;;;;22.03;12.00;;;;;;;;;;756648;183;916080;-73
2023/12/28 13:03:31;;;;;;;22.20;12.43;;;;;;;;;;762508;183;915662;-73
2023/12/28 13:05:57;;;;;;;19.13;11.27;;;;;;;;;;752288;184;915691;-74
2023/12/28 13:08:22;;;;;;;20.70;12.13;;;;;;;;;;756026;183;915288;-74
2023/12/28 13:10:49;;;;;;;23.08;12.40;;;;;;;;;;765812;183;919248;-74
2023/12/28 13:13:14;;;;;;;21.87;12.47;;;;;;;;;;758976;183;810633;-74
2023/12/28 13:15:40;;;;;;;21.30;12.75;;;;;;;;;;751192;184;918139;-74
2023/12/28 13:18:06;;;;;;;18.43;12.10;;;;;;;;;;759496;184;919211;-74
2023/12/28 13:20:31;;;;;;;17.60;11.80;;;;;;;;;;755531;183;1024200;-75
2023/12/28 13:22:57;;;;;;;21.30;11.93;;;;;;;;;;763964;184;705461;-74
2023/12/28 13:25:23;;;;;;;18.23;11.70;;;;;;;;;;762463;181;907280;-72
2023/12/28 13:27:49;;;;;;;17.90;12.60;;;;;;;;;;765403;184;922615;-73
2023/12/28 13:30:15;;;;;;;19.97;11.73;;;;;;;;;;758450;184;823943;-73
2023/12/28 13:32:41;;;;;;;20.80;12.23;;;;;;;;;;757293;184;816254;-73
2023/12/28 13:35:07;;;;;;;20.57;13.37;;;;;;;;;;763977;183;1001248;-73
2023/12/28 13:37:33;;;;;;;16.70;11.90;;;;;;;;;;754344;184;918469;-73
2023/12/28 13:39:59;;;;;;;18.47;11.60;;;;;;;;;;752333;184;993670;-73
2023/12/28 13:42:24;;;;;;;20.37;11.17;;;;;;;;;;760912;184;918552;-72
2023/12/28 13:44:50;;;;;;;20.63;13.30;;;;;;;;;;755052;184;803177;-73
2023/12/28 13:47:16;;;;;;;18.87;11.70;;;;;;;;;;752966;183;1018072;-73
2023/12/28 13:49:43;;;;;;;17.87;12.37;;;;;;;;;;753235;183;916568;-72
2023/12/28 13:52:08;;;;;;;18.23;10.93;;;;;;;;;;763832;181;1019970;-72
2023/12/28 13:54:34;;;;;;;18.23;12.57;;;;;;;;;;754557;184;1022751;-72
2023/12/28 13:57:00;;;;;;;19.10;12.80;;;;;;;;;;748400;184;909371;-68
2023/12/28 13:59:25;;;;;;;20.50;12.80;;;;;;;;;;745630;185;824893;-60